createdAt,value
2018-07-04T00:02:21.887Z,4.83
2018-07-04T00:05:01.706Z,5.23
2018-07-04T00:07:35.302Z,6.57
2018-07-04T00:10:09.063Z,5.50
2018-07-04T00:12:48.860Z,6.70
2018-07-04T00:15:28.630Z,6.53
2018-07-04T00:18:08.276Z,8.30
2018-07-04T00:20:47.920Z,9.40
2018-07-04T00:23:27.858Z,7.90
2018-07-04T00:26:07.710Z,6.83
2018-07-04T00:28:47.764Z,5.87
2018-07-04T00:31:27.476Z,8.17
2018-07-04T00:34:07.284Z,5.67
2018-07-04T00:36:47.188Z,10.67
2018-07-04T00:39:26.905Z,5.93
2018-07-04T00:42:00.758Z,8.03
2018-07-04T00:44:40.760Z,6.57
2018-07-04T00:47:20.536Z,6.10
2018-07-04T00:50:00.197Z,4.83
2018-07-04T00:52:39.852Z,6.10
2018-07-04T00:55:13.518Z,8.40
2018-07-04T00:57:53.548Z,8.33
2018-07-04T01:00:33.772Z,9.00
2018-07-04T01:03:13.619Z,6.93
2018-07-04T01:05:53.563Z,10.97
2018-07-04T01:08:33.264Z,7.47
2018-07-04T01:11:13.156Z,7.13
2018-07-04T01:13:52.797Z,8.10
2018-07-04T01:16:32.542Z,7.47
2018-07-04T01:19:12.130Z,7.20
2018-07-04T01:21:51.800Z,6.53
2018-07-04T01:24:31.487Z,9.67
2018-07-04T01:27:11.234Z,6.37
2018-07-04T01:29:51.023Z,8.40
2018-07-04T01:32:30.956Z,9.33
2018-07-04T01:35:10.612Z,6.83
2018-07-04T01:37:50.421Z,8.47
2018-07-04T01:40:30.091Z,11.03
2018-07-04T01:43:09.882Z,7.40
2018-07-04T01:45:49.703Z,8.67
2018-07-04T01:48:29.533Z,7.20
2018-07-04T01:51:09.268Z,8.90
2018-07-04T01:53:49.195Z,7.07
2018-07-04T01:56:23.004Z,9.10
2018-07-04T01:58:56.652Z,8.30
2018-07-04T02:01:36.341Z,9.00
2018-07-04T02:04:16.131Z,6.50
2018-07-04T02:06:55.781Z,8.43
2018-07-04T02:09:35.409Z,7.97
2018-07-04T02:12:15.131Z,7.07
2018-07-04T02:14:54.898Z,9.93
2018-07-04T02:17:35.320Z,6.00
2018-07-04T02:20:15.004Z,6.57
2018-07-04T02:22:48.734Z,7.77
2018-07-04T02:25:28.340Z,6.37
2018-07-04T02:28:07.883Z,7.90
2018-07-04T02:30:47.846Z,8.60
2018-07-04T02:33:27.579Z,8.80
2018-07-04T02:36:07.267Z,6.67
2018-07-04T02:38:46.815Z,12.07
2018-07-04T02:41:26.423Z,8.63
2018-07-04T02:44:05.997Z,7.80
2018-07-04T02:46:45.727Z,9.97
2018-07-04T02:49:25.519Z,6.87
2018-07-04T02:52:05.379Z,8.00
2018-07-04T02:54:45.123Z,5.97
2018-07-04T02:57:25.000Z,8.03
2018-07-04T03:00:05.350Z,8.57
2018-07-04T03:02:45.245Z,8.47
2018-07-04T03:05:24.889Z,6.97
2018-07-04T03:08:04.778Z,9.03
2018-07-04T03:10:44.372Z,9.67
2018-07-04T03:13:24.220Z,4.57
2018-07-04T03:15:57.988Z,6.07
2018-07-04T03:18:38.000Z,5.73
2018-07-04T03:21:11.792Z,8.63
2018-07-04T03:23:45.787Z,8.40
2018-07-04T03:26:25.455Z,9.80
2018-07-04T03:29:05.733Z,7.70
2018-07-04T03:31:45.456Z,10.93
2018-07-04T03:34:25.011Z,8.17
2018-07-04T03:37:04.814Z,8.17
2018-07-04T03:39:44.781Z,10.03
2018-07-04T03:42:24.369Z,6.47
2018-07-04T03:45:04.168Z,8.47
2018-07-04T03:47:43.929Z,6.77
2018-07-04T03:50:23.427Z,9.83
2018-07-04T03:52:57.131Z,6.60
2018-07-04T03:55:36.753Z,7.47
2018-07-04T03:58:16.329Z,12.83
2018-07-04T04:00:56.280Z,8.10
2018-07-04T04:03:36.004Z,7.33
2018-07-04T04:06:15.696Z,6.33
2018-07-04T04:08:55.248Z,4.80
2018-07-04T04:11:35.031Z,5.80
2018-07-04T04:14:14.637Z,6.23
2018-07-04T04:16:54.283Z,7.33
2018-07-04T04:19:35.051Z,9.97
2018-07-04T04:22:08.824Z,9.17
2018-07-04T04:24:48.625Z,8.53
2018-07-04T04:27:28.345Z,6.07
2018-07-04T04:30:08.219Z,11.00
2018-07-04T04:32:48.150Z,9.67
2018-07-04T04:35:28.139Z,6.00
2018-07-04T04:38:07.981Z,4.93
2018-07-04T04:40:47.980Z,8.60
2018-07-04T04:43:27.875Z,6.33
2018-07-04T04:46:07.616Z,5.03
2018-07-04T04:48:41.200Z,6.67
2018-07-04T04:51:20.944Z,8.17
2018-07-04T04:54:00.990Z,6.27
2018-07-04T04:56:40.909Z,9.20
2018-07-04T04:59:14.792Z,8.70
2018-07-04T05:01:54.830Z,4.40
2018-07-04T05:04:34.327Z,6.93
2018-07-04T05:07:14.071Z,10.23
2018-07-04T05:09:53.827Z,8.43
2018-07-04T05:12:33.460Z,9.43
2018-07-04T05:15:13.278Z,8.37
2018-07-04T05:17:53.079Z,8.20
2018-07-04T05:20:32.961Z,6.43
2018-07-04T05:23:12.650Z,6.20
2018-07-04T05:25:52.334Z,6.33
2018-07-04T05:28:32.253Z,8.00
2018-07-04T05:31:11.882Z,8.07
2018-07-04T05:33:51.695Z,8.30
2018-07-04T05:36:31.858Z,11.27
2018-07-04T05:39:11.632Z,9.83
2018-07-04T05:41:51.388Z,9.43
2018-07-04T05:44:31.003Z,9.60
2018-07-04T05:47:11.201Z,6.83
2018-07-04T05:49:50.974Z,8.47
2018-07-04T05:52:30.942Z,6.20
2018-07-04T05:55:10.973Z,5.60
2018-07-04T05:57:50.616Z,8.73
2018-07-04T06:00:30.915Z,9.13
2018-07-04T06:03:05.065Z,9.80
2018-07-04T06:05:44.917Z,8.07
2018-07-04T06:08:24.775Z,7.63
2018-07-04T06:11:04.435Z,9.00
2018-07-04T06:13:44.778Z,7.93
2018-07-04T06:16:24.432Z,5.10
2018-07-04T06:18:58.149Z,7.23
2018-07-04T06:21:38.156Z,10.07
2018-07-04T06:24:17.749Z,7.57
2018-07-04T06:26:57.525Z,6.30
2018-07-04T06:29:37.177Z,7.10
2018-07-04T06:32:16.846Z,8.23
2018-07-04T06:34:50.667Z,4.73
2018-07-04T06:37:24.700Z,6.20
2018-07-04T06:39:52.584Z,11.60
2018-07-04T06:42:30.972Z,7.67
2018-07-04T06:45:00.128Z,8.07
2018-07-04T06:47:27.524Z,12.73
2018-07-04T06:49:55.110Z,8.83
2018-07-04T06:52:22.996Z,9.23
2018-07-04T06:54:50.979Z,7.80
2018-07-04T06:57:19.490Z,6.40
2018-07-04T06:59:47.356Z,6.17
2018-07-04T07:02:16.903Z,5.23
2018-07-04T07:04:58.016Z,10.77
2018-07-04T07:07:37.676Z,7.77
2018-07-04T07:10:17.681Z,9.13
2018-07-04T07:12:51.376Z,8.83
2018-07-04T07:15:32.188Z,7.50
2018-07-04T07:18:13.239Z,6.73
2018-07-04T07:20:52.999Z,12.40
2018-07-04T07:23:33.252Z,14.43
2018-07-04T07:26:13.399Z,4.90
2018-07-04T07:28:47.114Z,8.20
2018-07-04T07:31:21.007Z,6.77
2018-07-04T07:34:01.012Z,7.17
2018-07-04T07:36:34.719Z,10.13
2018-07-04T07:39:14.523Z,5.63
2018-07-04T07:41:54.533Z,9.17
2018-07-04T07:44:34.297Z,5.43
2018-07-04T07:47:08.494Z,8.33
2018-07-04T07:49:48.249Z,7.43
2018-07-04T07:52:28.195Z,9.10
2018-07-04T07:55:19.944Z,5.63
2018-07-04T07:57:59.579Z,6.23
2018-07-04T08:00:39.425Z,6.83
2018-07-04T08:03:19.771Z,4.63
2018-07-04T08:05:53.629Z,7.83
2018-07-04T08:08:33.411Z,12.23
2018-07-04T08:11:13.916Z,7.13
2018-07-04T08:13:53.881Z,9.00
2018-07-04T08:16:33.561Z,8.13
2018-07-04T08:19:13.599Z,7.53
2018-07-04T08:21:54.324Z,8.90
2018-07-04T08:24:34.580Z,6.07
2018-07-04T08:27:08.212Z,10.40
2018-07-04T08:29:47.671Z,8.37
2018-07-04T08:32:27.324Z,7.87
2018-07-04T08:35:06.873Z,7.50
2018-07-04T08:37:46.476Z,9.13
2018-07-04T08:40:26.173Z,7.10
2018-07-04T08:43:06.097Z,8.57
2018-07-04T08:45:45.720Z,10.23
2018-07-04T08:48:25.484Z,10.30
2018-07-04T08:51:05.172Z,7.60
2018-07-04T08:53:44.832Z,4.83
2018-07-04T08:56:24.607Z,8.23
2018-07-04T08:58:58.195Z,10.63
2018-07-04T09:01:37.943Z,9.73
2018-07-04T09:04:17.555Z,9.60
2018-07-04T09:06:57.217Z,8.30
2018-07-04T09:09:36.950Z,9.37
2018-07-04T09:12:10.575Z,9.00
2018-07-04T09:14:44.133Z,7.30
2018-07-04T09:17:23.703Z,12.40
2018-07-04T09:20:03.289Z,5.40
2018-07-04T09:22:37.419Z,6.73
2018-07-04T09:25:17.003Z,6.10
2018-07-04T09:27:56.792Z,7.13
2018-07-04T09:30:36.573Z,10.23
2018-07-04T09:33:16.206Z,8.33
2018-07-04T09:35:55.985Z,9.57
2018-07-04T09:38:35.924Z,7.87
2018-07-04T09:41:15.484Z,9.17
2018-07-04T09:43:55.300Z,9.97
2018-07-04T09:46:34.977Z,4.80
2018-07-04T09:49:14.651Z,5.83
2018-07-04T09:51:54.402Z,7.30
2018-07-04T09:54:34.049Z,7.73
2018-07-04T09:57:14.583Z,5.50
2018-07-04T09:59:54.265Z,5.87
2018-07-04T10:02:33.840Z,8.97
2018-07-04T10:05:14.075Z,8.60
2018-07-04T10:07:53.660Z,9.50
2018-07-04T10:10:33.692Z,9.17
2018-07-04T10:13:07.351Z,8.93
2018-07-04T10:15:47.144Z,9.50
2018-07-04T10:18:26.675Z,5.27
2018-07-04T10:21:06.454Z,7.00
2018-07-04T10:23:46.115Z,4.87
2018-07-04T10:26:26.053Z,9.73
2018-07-04T10:29:05.757Z,7.47
2018-07-04T10:31:45.700Z,7.00
2018-07-04T10:34:19.640Z,9.87
2018-07-04T10:36:59.512Z,6.60
2018-07-04T10:39:39.290Z,7.77
2018-07-04T10:42:20.128Z,5.70
2018-07-04T10:44:53.695Z,6.73
2018-07-04T10:47:33.435Z,7.60
2018-07-04T10:50:13.017Z,7.27
2018-07-04T10:52:52.694Z,9.37
2018-07-04T10:55:32.488Z,6.30
2018-07-04T10:58:12.215Z,9.93
2018-07-04T11:00:51.944Z,8.17
2018-07-04T11:03:32.132Z,7.90
2018-07-04T11:06:11.757Z,8.47
2018-07-04T11:08:51.547Z,9.77
2018-07-04T11:11:31.210Z,9.43
2018-07-04T11:14:11.093Z,11.63
2018-07-04T11:16:50.666Z,7.70
2018-07-04T11:19:30.514Z,7.37
2018-07-04T11:22:04.113Z,10.33
2018-07-04T11:24:38.872Z,6.20
2018-07-04T11:27:18.672Z,7.57
2018-07-04T11:29:58.236Z,8.63
2018-07-04T11:32:38.285Z,6.40
2018-07-04T11:35:18.183Z,11.00
2018-07-04T11:37:57.936Z,9.60
2018-07-04T11:40:37.885Z,7.90
2018-07-04T11:43:17.600Z,7.10
2018-07-04T11:45:57.156Z,6.60
2018-07-04T11:48:24.801Z,8.60
2018-07-04T11:50:53.420Z,7.67
2018-07-04T11:53:20.709Z,8.90
2018-07-04T11:55:48.020Z,8.50
2018-07-04T11:58:16.401Z,7.07
2018-07-04T12:00:43.980Z,7.80
2018-07-04T12:03:16.461Z,5.83
2018-07-04T12:05:56.533Z,8.07
2018-07-04T12:08:23.962Z,5.00
2018-07-04T12:10:51.904Z,8.80
2018-07-04T12:13:20.307Z,8.67
2018-07-04T12:15:48.542Z,8.07
2018-07-04T12:18:16.104Z,5.40
2018-07-04T12:20:44.421Z,9.33
2018-07-04T12:23:12.045Z,9.40
2018-07-04T12:25:40.220Z,6.37
2018-07-04T12:28:07.559Z,10.67
2018-07-04T12:30:35.285Z,7.03
2018-07-04T12:33:03.055Z,8.30
2018-07-04T12:35:30.414Z,8.07
2018-07-04T12:37:57.739Z,7.10
2018-07-04T12:40:25.236Z,9.00
2018-07-04T12:42:52.535Z,10.60
2018-07-04T12:45:19.792Z,6.63
2018-07-04T12:47:47.034Z,8.37
2018-07-04T12:50:26.484Z,8.10
2018-07-04T12:52:54.049Z,5.30
2018-07-04T12:55:39.735Z,10.17
2018-07-04T12:58:20.092Z,8.47
2018-07-04T13:00:59.855Z,5.53
2018-07-04T13:03:39.460Z,7.93
2018-07-04T13:06:19.182Z,13.23
2018-07-04T13:08:58.808Z,9.37
2018-07-04T13:11:38.513Z,6.97
2018-07-04T13:14:18.105Z,9.93
2018-07-04T13:16:57.739Z,6.30
2018-07-04T13:19:37.555Z,6.13
2018-07-04T13:22:17.240Z,7.97
2018-07-04T13:24:56.914Z,5.20
2018-07-04T13:27:36.683Z,8.30
2018-07-04T13:30:16.311Z,5.40
2018-07-04T13:32:55.999Z,6.43
2018-07-04T13:35:35.700Z,6.30
2018-07-04T13:38:15.408Z,4.57
2018-07-04T13:40:55.411Z,7.13
2018-07-04T13:43:35.256Z,10.40
2018-07-04T13:46:14.733Z,6.87
2018-07-04T13:48:48.256Z,5.93
2018-07-04T13:51:28.044Z,4.17
2018-07-04T13:54:07.958Z,5.17
2018-07-04T13:56:47.684Z,8.43
2018-07-04T13:59:27.415Z,5.13
2018-07-04T14:02:07.187Z,6.70
2018-07-04T14:04:46.821Z,7.70
2018-07-04T14:07:26.596Z,9.33
2018-07-04T14:10:06.355Z,7.10
2018-07-04T14:12:46.048Z,4.03
2018-07-04T14:15:25.881Z,4.33
2018-07-04T14:18:05.541Z,6.07
2018-07-04T14:20:45.147Z,6.63
2018-07-04T14:23:24.813Z,6.53
2018-07-04T14:26:04.970Z,7.33
2018-07-04T14:28:44.779Z,6.87
2018-07-04T14:31:24.468Z,6.83
2018-07-04T14:34:04.230Z,7.00
2018-07-04T14:39:34.377Z,6.57
2018-07-04T14:42:13.863Z,5.97
2018-07-04T14:44:47.551Z,9.80
2018-07-04T14:47:27.199Z,5.30
2018-07-04T14:50:07.902Z,4.30
2018-07-04T14:52:47.616Z,4.17
2018-07-04T14:55:27.200Z,5.30
2018-07-04T14:58:07.060Z,5.40
2018-07-04T15:00:48.231Z,4.70
2018-07-04T15:03:27.879Z,4.03
2018-07-04T15:06:07.405Z,9.07
2018-07-04T15:08:47.192Z,5.43
2018-07-04T15:11:26.916Z,4.73
2018-07-04T15:14:06.916Z,5.03
2018-07-04T15:16:46.550Z,6.10
2018-07-04T15:19:26.393Z,4.80
2018-07-04T15:22:06.121Z,4.90
2018-07-04T15:24:45.830Z,4.00
2018-07-04T15:27:25.450Z,7.03
2018-07-04T15:30:04.978Z,4.70
2018-07-04T15:32:44.722Z,2.63
2018-07-04T15:35:25.014Z,5.83
2018-07-04T15:38:04.643Z,6.20
2018-07-04T15:40:44.646Z,4.00
2018-07-04T15:43:24.150Z,5.20
2018-07-04T15:46:03.930Z,3.23
2018-07-04T15:48:43.647Z,4.47
2018-07-04T15:51:24.401Z,2.30
2018-07-04T15:54:04.737Z,7.83
2018-07-04T15:56:44.461Z,4.80
2018-07-04T15:59:24.022Z,3.47
2018-07-04T16:02:03.641Z,6.17
2018-07-04T16:04:37.300Z,4.07
2018-07-04T16:07:17.355Z,2.73
2018-07-04T16:09:57.134Z,5.03
2018-07-04T16:12:36.756Z,2.30
2018-07-04T16:15:16.468Z,2.23
2018-07-04T16:17:56.528Z,4.90
2018-07-04T16:20:36.153Z,2.80
2018-07-04T16:23:16.116Z,3.17
2018-07-04T16:25:55.856Z,1.20
2018-07-04T16:28:36.792Z,1.60
2018-07-04T16:31:16.625Z,4.30
2018-07-04T16:33:56.255Z,2.70
2018-07-04T16:36:35.928Z,4.10
2018-07-04T16:39:15.711Z,5.50
2018-07-04T16:41:55.476Z,2.03
2018-07-04T16:44:35.804Z,3.23
2018-07-04T16:47:15.696Z,5.53
2018-07-04T16:49:55.293Z,2.73
2018-07-04T16:52:28.871Z,3.03
2018-07-04T16:55:08.604Z,2.90
2018-07-04T16:57:48.325Z,1.97
2018-07-04T17:00:22.068Z,2.63
2018-07-04T17:03:01.756Z,4.20
2018-07-04T17:05:41.451Z,2.93
2018-07-04T17:08:15.055Z,3.53
2018-07-04T17:10:54.857Z,5.23
2018-07-04T17:13:34.523Z,3.50
2018-07-04T17:16:14.500Z,2.73
2018-07-04T17:18:54.135Z,4.07
2018-07-04T17:21:33.908Z,3.07
2018-07-04T17:24:13.758Z,4.27
2018-07-04T17:26:55.795Z,2.53
2018-07-04T17:29:35.396Z,2.20
2018-07-04T17:32:15.110Z,2.73
2018-07-04T17:34:54.988Z,5.70
2018-07-04T17:37:34.506Z,3.20
2018-07-04T17:40:14.260Z,5.37
2018-07-04T17:42:53.984Z,4.17
2018-07-04T17:45:27.598Z,2.27
2018-07-04T17:48:07.217Z,3.70
2018-07-04T17:50:46.979Z,4.33
2018-07-04T17:53:26.888Z,4.33
2018-07-04T17:56:00.492Z,3.03
2018-07-04T17:58:34.126Z,4.30
2018-07-04T18:01:13.713Z,3.00
2018-07-04T18:03:53.379Z,6.40
2018-07-04T18:06:32.868Z,4.47
2018-07-04T18:09:06.558Z,5.30
2018-07-04T18:11:46.313Z,4.27
2018-07-04T18:14:26.077Z,5.17
2018-07-04T18:17:05.692Z,2.83
2018-07-04T18:19:45.921Z,3.77
2018-07-04T18:22:26.784Z,5.17
2018-07-04T18:25:06.978Z,3.00
2018-07-04T18:27:46.819Z,3.60
2018-07-04T18:30:26.819Z,5.63
2018-07-04T18:33:06.351Z,4.67
2018-07-04T18:35:40.165Z,5.30
2018-07-04T18:38:19.928Z,4.97
2018-07-04T18:40:59.547Z,3.10
2018-07-04T18:43:39.379Z,4.70
2018-07-04T18:46:19.399Z,3.90
2018-07-04T18:48:52.909Z,3.30
2018-07-04T18:51:32.497Z,3.00
2018-07-04T18:54:11.999Z,5.83
2018-07-04T18:56:51.556Z,3.57
2018-07-04T18:59:30.992Z,3.73
2018-07-04T19:02:10.927Z,6.67
2018-07-04T19:04:50.441Z,4.37
2018-07-04T19:07:23.957Z,4.10
2018-07-04T19:09:57.555Z,3.37
2018-07-04T19:12:37.466Z,4.17
2018-07-04T19:15:17.280Z,3.23
2018-07-04T19:17:56.946Z,4.80
2018-07-04T19:20:30.936Z,4.87
2018-07-04T19:23:10.956Z,3.07
2018-07-04T19:25:44.939Z,3.13
2018-07-04T19:28:24.760Z,6.00
2018-07-04T19:31:04.720Z,2.50
2018-07-04T19:33:44.604Z,3.10
2018-07-04T19:36:24.398Z,2.07
2018-07-04T19:38:58.233Z,5.33
2018-07-04T19:41:37.961Z,2.63
2018-07-04T19:44:18.031Z,6.00
2018-07-04T19:46:57.825Z,2.93
2018-07-04T19:49:38.011Z,3.33
2018-07-04T19:52:17.640Z,2.13
2018-07-04T19:54:51.238Z,3.60
2018-07-04T19:57:31.192Z,2.37
2018-07-04T20:00:12.343Z,3.53
2018-07-04T20:02:52.146Z,4.53
2018-07-04T20:05:25.872Z,3.80
2018-07-04T20:08:06.525Z,2.17
2018-07-04T20:10:46.662Z,3.20
2018-07-04T20:13:26.426Z,3.70
2018-07-04T20:16:06.118Z,1.77
2018-07-04T20:18:45.710Z,2.90
2018-07-04T20:21:19.616Z,3.43
2018-07-04T20:23:53.320Z,5.40
2018-07-04T20:26:33.146Z,3.00
2018-07-04T20:29:12.931Z,3.67
2018-07-04T20:31:46.731Z,3.23
2018-07-04T20:34:26.359Z,3.13
2018-07-04T20:37:05.952Z,4.50
2018-07-04T20:39:45.761Z,4.93
2018-07-04T20:42:26.009Z,5.03
2018-07-04T20:45:05.443Z,2.57
2018-07-04T20:47:45.169Z,4.60
2018-07-04T20:50:25.074Z,6.07
2018-07-04T20:53:04.984Z,4.17
2018-07-04T20:55:44.794Z,3.00
2018-07-04T20:58:24.696Z,3.20
2018-07-04T21:01:04.468Z,3.63
2018-07-04T21:03:44.269Z,3.03
2018-07-04T21:06:18.047Z,2.83
2018-07-04T21:08:58.041Z,4.97
2018-07-04T21:11:37.853Z,2.53
2018-07-04T21:14:17.538Z,2.47
2018-07-04T21:16:57.503Z,2.93
2018-07-04T21:19:37.439Z,4.40
2018-07-04T21:22:17.216Z,2.73
2018-07-04T21:24:57.308Z,2.27
2018-07-04T21:27:38.652Z,4.07
2018-07-04T21:30:25.726Z,5.07
2018-07-04T21:33:10.573Z,3.23
2018-07-04T21:35:50.204Z,2.73
2018-07-04T21:38:36.759Z,3.63
2018-07-04T21:41:10.392Z,2.33
2018-07-04T21:43:50.256Z,5.30
2018-07-04T21:46:31.428Z,4.90
2018-07-04T21:49:11.151Z,2.87
2018-07-04T21:51:46.031Z,4.43
2018-07-04T21:54:25.979Z,2.87
2018-07-04T21:57:06.406Z,5.07
2018-07-04T21:59:46.276Z,3.90
2018-07-04T22:02:20.036Z,2.73
2018-07-04T22:04:59.813Z,4.00
2018-07-04T22:07:39.724Z,7.43
2018-07-04T22:10:19.811Z,4.83
2018-07-04T22:12:59.495Z,5.00
2018-07-04T22:15:39.197Z,2.80
2018-07-04T22:18:19.159Z,2.33
2018-07-04T22:20:58.985Z,4.83
2018-07-04T22:23:38.563Z,3.30
2018-07-04T22:26:18.500Z,2.80
2018-07-04T22:28:58.444Z,2.50
2018-07-04T22:31:38.272Z,4.73
2018-07-04T22:34:11.911Z,2.60
2018-07-04T22:36:51.694Z,4.63
2018-07-04T22:39:31.956Z,3.60
2018-07-04T22:42:11.697Z,3.83
2018-07-04T22:44:51.384Z,3.10
2018-07-04T22:47:30.957Z,3.90
2018-07-04T22:50:11.125Z,4.43
2018-07-04T22:52:51.131Z,2.93
2018-07-04T22:55:30.943Z,3.40
2018-07-04T22:58:10.887Z,4.23
2018-07-04T23:00:50.780Z,3.50
2018-07-04T23:03:30.580Z,2.40
2018-07-04T23:06:10.529Z,2.80
2018-07-04T23:08:50.340Z,6.00
2018-07-04T23:11:30.508Z,2.57
2018-07-04T23:14:10.342Z,3.10
2018-07-04T23:16:50.064Z,3.00
2018-07-04T23:19:30.056Z,4.30
2018-07-04T23:22:09.883Z,3.90
2018-07-04T23:24:50.300Z,6.67
2018-07-04T23:27:30.154Z,3.77
2018-07-04T23:30:10.084Z,3.80
2018-07-04T23:32:49.828Z,3.67
2018-07-04T23:35:29.528Z,5.87
2018-07-04T23:38:09.707Z,5.03
2018-07-04T23:40:49.576Z,5.00
2018-07-04T23:43:29.356Z,4.10
2018-07-04T23:46:09.180Z,5.60
2018-07-04T23:48:48.736Z,4.87
2018-07-04T23:51:22.677Z,4.90
2018-07-04T23:54:02.661Z,5.37
2018-07-04T23:56:42.364Z,5.37
2018-07-04T23:59:22.232Z,5.73
